Tiempo atmosférico en la estación meteorológica de Aldeanueva de Serrezuela, Segovia (1135 m.)



Fecha
DESCASC
Temp. máxima en grados centígrados (hora)
DESCASC
Temp. mínima en grados centígrados (hora)
DESCASC
Temp. media en grados centígrados
DESCASC
Racha de viento máxima en m/sg (hora)
DESCASC
Velocidad máxima media en intervalos de 10 minutos(hora)
DESCASC
Precipitaciones diarias en mm
DESCASC
Precipitaciones de 00:00 a 06:00 en mm
DESCASC
Precipitaciones de 06:00 a 12:00 en mm
DESCASC
Precipitaciones de 12:00 a 18:00 en mm
DESCASC
Precipitaciones de 18:00 a 24:00 en mm
DESCASC
20-09-2018 28 (15:50) 18.8 (00:00) 23.4 12.22 (17:30) 8.33 (17:30) 0 0 0 0 0
19-09-2018 27.4 (16:30) 16.9 (05:20) 22.1 7.22 (17:00) 3.89 (17:30) 0 0 0 0 0
18-09-2018 26.4 (18:00) 16.1 (08:10) 21.3 11.11 (20:20) 6.67 (20:30) 0 0 0 0 0
17-09-2018 27.2 (13:50) 18.7 (07:30) 23 11.11 (23:10) 6.94 (23:30) 0 0 0 0 0
16-09-2018 28.5 (17:10) 17.3 (00:00) 22.9 7.22 (14:10) 4.72 (03:10) 0 0 0 0 0
15-09-2018 28.6 (18:40) 17 (00:00) 22.8 8.33 (00:20) 5 (00:10) 0 0 0 0 0
14-09-2018 28.1 (15:50) 17.3 (00:00) 22.7 9.17 (23:50) 5.28 (23:50) 0 0 0 0 0
13-09-2018 27.5 (17:20) 16.5 (00:00) 22 7.22 (16:10) 4.17 (15:00) 0 0 0 0 0
12-09-2018 27.1 (16:40) 15.1 (00:00) 21.1 10 (00:10) 6.67 (00:10) 0 0 0 0 0
11-09-2018 26 (16:10) 15.1 (00:00) 20.6 15 (18:30) 8.33 (18:00) 0 0 0 0 0
10-09-2018 24.9 (18:00) 12.6 (00:00) 18.8 8.61 (23:30) 5.56 (23:59) 0 0 0 0 0
09-09-2018 23.8 (16:50) 11.3 (00:00) 17.5 16.11 (02:10) 9.17 (02:10) 0.6 0.6 0 0 0
08-09-2018 23.9 (13:00) 13.3 (00:00) 18.6 13.06 (04:00) 8.61 (03:10) 1.2 1.2 0 0 0
07-09-2018 23.2 (18:40) 11.8 (00:00) 17.5 10.28 (23:20) 6.67 (23:20) 0 0 0 0 0
06-09-2018 20.6 (17:00) 12.6 (00:00) 16.6 7.5 (19:00) 3.89 (17:10) 1 0 0.8 0.2 0
05-09-2018 21.6 (15:50) 14 (00:00) 17.8 11.94 (16:40) 6.94 (18:30) 2 0.2 0 0.4 1.4
04-09-2018 26.3 (15:30) 14.4 (00:00) 20.3 14.17 (16:50) 9.17 (20:50) 7 0 0 4.8 2.2
03-09-2018 28.3 (17:00) 18.9 (00:00) 23.6 12.5 (03:20) 6.39 (03:20) 0 0 0 0 0
02-09-2018 31.3 (17:00) 19.7 (00:00) 25.5 8.61 (16:10) 5 (16:40) 0 0 0 0 0
01-09-2018 29.2 (18:10) 15.2 (00:00) 22.2 7.78 (06:20) 5 (05:30) 0 0 0 0 0
31-08-2018 27.1 (16:30) 14.1 (00:00) 20.6 8.33 (16:40) 4.44 (16:40) 0 0 0 0 0
30-08-2018 28.2 (16:40) 14.8 (00:00) 21.5 10.56 (02:00) 6.67 (01:40) 0 0 0 0 0
29-08-2018 27.4 (17:30) 14.7 (00:00) 21 10 (23:40) 5.83 (23:30) 0 0 0 0 0
28-08-2018 30.1 (16:30) 20 (00:00) 25.1 21.94 (15:10) 10.56 (16:10) 0 0 0 0 0
27-08-2018 32.3 (17:10) 17.5 (00:00) 24.9 9.44 (18:10) 5.83 (18:10) 0 0 0 0 0
26-08-2018 28.4 (17:20) 11.8 (00:00) 20.1 7.78 (16:40) 4.72 (15:40) 0 0 0 0 0
25-08-2018 24.4 (17:30) 11.6 (00:00) 18 6.67 (14:50) 3.89 (14:50) 0 0 0 0 0

Gráficas

Temp. máximas Temp. mínimas Temp. medias Precipitaciones Rachas de viento máximas Velocidades máximas media en intervalos de 10 minutos

Datos horarios

Fecha y hora oficial Temperatura (ºC) Velocidad del viento (km/h) Dirección del viento Racha (km/h) Dirección de racha Precipitación (mm) Presión (hPa) Tendencia (hPa) Humedad (%)
2018-09-23 23:00:00 18.4 9 Este 17 Norte 0 -- -- 42
2018-09-23 22:00:00 22.3 0 Calma 6 Noroeste 0 -- -- 29
2018-09-23 21:00:00 22.5 3 Sur 4 Noroeste 0 -- -- 28
2018-09-23 20:00:00 26.3 4 Oeste 13 Noroeste 0 -- -- 24
2018-09-23 19:00:00 27.6 10 Noroeste 21 Noroeste 0 -- -- 21
2018-09-23 18:00:00 28.6 13 Oeste 28 Oeste 0 -- -- 22
2018-09-23 17:00:00 28.6 15 Oeste 23 Oeste 0 -- -- 23
2018-09-23 16:00:00 28.1 18 Oeste 31 Sudoeste 0 -- -- 25
2018-09-23 15:00:00 28.1 15 Sudoeste 26 Sudoeste 0 -- -- 26
2018-09-23 14:00:00 27.5 9 Oeste 23 Oeste 0 -- -- 26
2018-09-23 13:00:00 26.6 12 Oeste 18 Sudoeste 0 -- -- 29
2018-09-23 12:00:00 25.5 8 Noroeste 14 Noroeste 0 -- -- 31
2018-09-23 11:00:00 24 5 Noroeste 12 Oeste 0 -- -- 36
2018-09-23 10:00:00 23.9 3 Sudoeste 4 Sur 0 -- -- 34
2018-09-23 09:00:00 21.5 3 Sur 4 Sur 0 -- -- 35
2018-09-23 08:00:00 18.1 2 Sur 5 Sudoeste 0 -- -- 42
2018-09-23 07:00:00 20.1 5 Sur 6 Sudoeste 0 -- -- 38
2018-09-23 06:00:00 18.1 3 Sudoeste 5 Sudoeste 0 -- -- 43
2018-09-23 05:00:00 18.7 6 Sudeste 10 Sudeste 0 -- -- 42
2018-09-23 04:00:00 19.1 10 Sudeste 12 Sudeste 0 -- -- 41
2018-09-23 03:00:00 20 5 Sudeste 10 Este 0 -- -- 39
2018-09-23 02:00:00 18.9 7 Este 9 Este 0 -- -- 41
2018-09-23 01:00:00 19.6 0 Calma 6 Sudeste 0 -- -- 39
2018-09-23 00:00:00 20.6 4 Sudeste 6 Este 0 -- -- 35
2018-09-22 23:00:00 20.7 3 Este 6 Este 0 -- -- 36
2018-09-22 22:00:00 21.6 5 Este 8 Este 0 -- -- 35
2018-09-22 21:00:00 21.2 6 Este 8 Este 0 -- -- 36
2018-09-22 20:00:00 25.4 4 Norte 13 Norte 0 -- -- 30
2018-09-22 19:00:00 27 6 Noroeste 19 Noroeste 0 -- -- 28
2018-09-22 18:00:00 28.1 8 Noroeste 19 Noroeste 0 -- -- 28
2018-09-22 17:00:00 28.3 6 Sudoeste 22 Oeste 0 -- -- 28
2018-09-22 16:00:00 27.6 10 Oeste 26 Oeste 0 -- -- 30
2018-09-22 15:00:00 26.9 11 Oeste 18 Oeste 0 -- -- 31
2018-09-22 14:00:00 26 10 Oeste 18 Oeste 0 -- -- 33
2018-09-22 13:00:00 25.1 8 Oeste 15 Oeste 0 -- -- 33
2018-09-22 12:00:00 24.1 6 Oeste 13 Oeste 0 -- -- 33
2018-09-22 11:00:00 22.4 6 Oeste 10 Oeste 0 -- -- 36
2018-09-22 10:00:00 20.6 3 Sudoeste 5 Nordeste 0 -- -- 43
2018-09-22 09:00:00 18.7 4 Nordeste 14 Sur 0 -- -- 45
2018-09-22 08:00:00 18.7 11 Sur 13 Sur 0 -- -- 42
2018-09-22 07:00:00 18.9 10 Sur 13 Sudoeste 0 -- -- 42
2018-09-22 06:00:00 19.3 11 Sur 16 Sur 0 -- -- 41
2018-09-22 05:00:00 18.6 12 Sur 17 Sur 0 -- -- 41
2018-09-22 04:00:00 17.1 8 Sudeste 10 Sudeste 0 -- -- 44
2018-09-22 03:00:00 17.7 10 Sudeste 10 Sudeste 0 -- -- 42
2018-09-22 02:00:00 17 8 Este 9 Este 0 -- -- 44
2018-09-22 01:00:00 17.4 8 Este 10 Este 0 -- -- 45
2018-09-22 00:00:00 18.3 2 Nordeste 8 Este 0 -- -- 45
2018-09-21 23:00:00 17.5 5 Este 6 Sudeste 0 -- -- 49
2018-09-21 22:00:00 19.5 0 Calma 6 Noroeste 0 -- -- 44
2018-09-21 21:00:00 20.7 0 Calma 5 Oeste 0 -- -- 44
2018-09-21 20:00:00 22.3 5 Noroeste 11 Oeste 0 -- -- 42
2018-09-21 19:00:00 24.5 9 Noroeste 22 Noroeste 0 -- -- 37
2018-09-21 18:00:00 25.3 12 Oeste 23 Noroeste 0 -- -- 36
2018-09-21 17:00:00 25.9 12 Oeste 25 Oeste 0 -- -- 35
2018-09-21 16:00:00 25.5 12 Oeste 26 Oeste 0 -- -- 35
2018-09-21 15:00:00 25.1 11 Oeste 21 Oeste 0 -- -- 35
2018-09-21 14:00:00 23.7 10 Oeste 21 Oeste 0 -- -- 35
2018-09-21 13:00:00 23.1 8 Oeste 17 Oeste 0 -- -- 35
2018-09-21 12:00:00 21.9 7 Sudoeste 15 Oeste 0 -- -- 35
2018-09-21 11:00:00 20.8 2 Sudeste 8 Oeste 0 -- -- 47
2018-09-21 10:00:00 18.2 4 Sur 12 Sudoeste 0 -- -- 52
2018-09-21 09:00:00 15.5 7 Sudoeste 14 Sudoeste 0 -- -- 56
2018-09-21 08:00:00 14.5 10 Sudoeste 17 Sudoeste 0 -- -- 60
2018-09-21 07:00:00 15.2 14 Sudoeste 20 Sudoeste 0 -- -- 60
2018-09-21 06:00:00 15.8 13 Sudoeste 24 Sudoeste 0 -- -- 65
2018-09-21 05:00:00 17.5 13 Sudoeste 18 Sur 0 -- -- 59
2018-09-21 04:00:00 18.1 11 Sur 15 Sur 0 -- -- 49
2018-09-21 03:00:00 18.3 7 Sudoeste 9 Sudoeste 0 -- -- 54
2018-09-21 02:00:00 19.1 4 Sudoeste 6 Sudoeste 0 -- -- 55
2018-09-21 01:00:00 19.2 6 Sudoeste 15 Sudoeste 0 -- -- 59
2018-09-21 00:00:00 20.6 13 Sudoeste 19 Sudoeste 0 -- -- 54
2018-09-20 23:00:00 21.7 13 Sudoeste 20 Sudoeste 0 -- -- 50
2018-09-20 22:00:00 22 16 Sur 21 Sur 0 -- -- 47
2018-09-20 21:00:00 21.7 13 Sur 23 Sur 0 -- -- 48
2018-09-20 20:00:00 22.8 14 Sur 23 Sudoeste 0 -- -- 47
2018-09-20 19:00:00 23.1 17 Sur 40 Sur 0 -- -- 46
2018-09-20 18:00:00 23.6 26 Sur 44 Sudoeste 0 -- -- 47
2018-09-20 17:00:00 26.2 10 Oeste 26 Sudoeste 0 -- -- 37
2018-09-20 16:00:00 27.6 12 Oeste 29 Oeste 0 -- -- 34
2018-09-20 15:00:00 27.2 14 Oeste 30 Oeste 0 -- -- 36
2018-09-20 14:00:00 26.7 16 Oeste 30 Sudoeste 0 -- -- 37
2018-09-20 13:00:00 25.8 17 Sudoeste 26 Sudoeste 0 -- -- 41
2018-09-20 12:00:00 25.3 14 Sudoeste 22 Sudoeste 0 -- -- 36
2018-09-20 11:00:00 23.5 14 Sudoeste 20 Sur 0 -- -- 42
2018-09-20 10:00:00 21.5 12 Sudoeste 26 Sur 0 -- -- 44
2018-09-20 09:00:00 19.7 16 Sur 23 Sur 0 -- -- 45
2018-09-20 08:00:00 19 6 Sudeste 24 Sur 0 -- -- 49
2018-09-20 07:00:00 19.6 17 Sur 27 Sur 0 -- -- 49
2018-09-20 06:00:00 19.6 17 Sur 25 Sur 0 -- -- 52
2018-09-20 05:00:00 19.8 13 Sur 19 Sur 0 -- -- 52
2018-09-20 04:00:00 19.7 11 Sur 18 Sur 0 -- -- 55
2018-09-20 03:00:00 20.1 8 Sur 12 Sudoeste 0 -- -- 50
2018-09-20 02:00:00 20.4 3 Sur 5 Sudeste 0 -- -- 49
2018-09-20 01:00:00 21.1 3 Sudeste 6 Sudeste 0 -- -- 47
2018-09-20 00:00:00 18.8 4 Este 6 Este 0 -- -- 54
2018-09-19 23:00:00 20.5 2 Sur 6 Sudoeste 0 -- -- 49
2018-09-19 22:00:00 21.9 2 Sudoeste 8 Sudoeste 0 -- -- 47
2018-09-19 21:00:00 21.4 5 Sur 6 Sudoeste 0 -- -- 48
2018-09-19 20:00:00 25.1 2 Sudoeste 12 Oeste 0 -- -- 41
2018-09-19 19:00:00 26.7 5 Oeste 12 Sudoeste 0 -- -- 37
2018-09-19 18:00:00 27 12 Sudoeste 22 Oeste 0 -- -- 37
2018-09-19 17:00:00 26.9 13 Oeste 26 Oeste 0 -- -- 36
2018-09-19 16:00:00 27.3 13 Sudoeste 23 Sudoeste 0 -- -- 34
2018-09-19 15:00:00 26.4 8 Oeste 14 Sudoeste 0 -- -- 38
2018-09-19 14:00:00 24.9 7 Oeste 21 Oeste 0 -- -- 42
2018-09-19 13:00:00 25.3 5 Sudoeste 15 Oeste 0 -- -- 44
2018-09-19 12:00:00 23.4 5 Oeste 12 Oeste 0 -- -- 49
2018-09-19 11:00:00 22.1 5 Noroeste 10 Oeste 0 -- -- 53
2018-09-19 10:00:00 19.9 7 Sudoeste 13 Sudoeste 0 -- -- 60
2018-09-19 09:00:00 18 9 Sudoeste 16 Sur 0 -- -- 64
2018-09-19 08:00:00 17.7 10 Sur 15 Sur 0 -- -- 62
2018-09-19 07:00:00 17.8 8 Sur 12 Sur 0 -- -- 61
2018-09-19 06:00:00 17.2 6 Sur 11 Sur 0 -- -- 63
2018-09-19 05:00:00 17.4 8 Sur 11 Sudoeste 0 -- -- 61
2018-09-19 04:00:00 17.5 9 Sur 12 Sudoeste 0 -- -- 60
2018-09-19 03:00:00 18.3 11 Sudoeste 14 Sur 0 -- -- 58
2018-09-19 02:00:00 18.6 11 Sudoeste 14 Sur 0 -- -- 59
2018-09-19 01:00:00 18.9 10 Sur 15 Sur 0 -- -- 59
2018-09-19 00:00:00 18.9 10 Sur 18 Sur 0 -- -- 58
2018-09-18 23:00:00 19.3 10 Sur 22 Sur 0 -- -- 58
2018-09-18 22:00:00 19.3 14 Sur 30 Sur 0 -- -- 60
2018-09-18 21:00:00 18.7 21 Sur 40 Sudoeste 0 -- -- 60
2018-09-18 20:00:00 23.1 5 Noroeste 16 Oeste 0 -- -- 45
2018-09-18 19:00:00 25.7 6 Oeste 20 Noroeste 0 -- -- 41
2018-09-18 18:00:00 26.4 12 Oeste 24 Noroeste 0 -- -- 40
2018-09-18 17:00:00 25.7 12 Noroeste 25 Noroeste 0 -- -- 41
2018-09-18 16:00:00 25.1 9 Norte 22 Oeste 0 -- -- 44
2018-09-18 15:00:00 25.4 9 Noroeste 23 Oeste 0 -- -- 43
2018-09-18 14:00:00 24.6 9 Noroeste 20 Oeste 0 -- -- 46
2018-09-18 13:00:00 23.8 8 Oeste 20 Oeste 0 -- -- 47
2018-09-18 12:00:00 22.3 8 Sudoeste 18 Sudoeste 0 -- -- 50
2018-09-18 11:00:00 20.3 12 Oeste 16 Oeste 0 -- -- 59
2018-09-18 10:00:00 18.2 5 Sudoeste 18 Sudoeste 0 -- -- 68
2018-09-18 09:00:00 17.6 9 Sudoeste 15 Sudoeste 0 -- -- 70
2018-09-18 08:00:00 16.2 10 Sudoeste 19 Sudoeste 0 -- -- 75
2018-09-18 07:00:00 16.2 10 Sur 21 Sur 0 -- -- 73
2018-09-18 06:00:00 16.7 14 Sudoeste 26 Sudoeste 0 -- -- 72
2018-09-18 05:00:00 17.8 17 Sudoeste 30 Sudoeste 0 -- -- 67
2018-09-18 04:00:00 17.7 14 Sur 26 Sudeste 0 -- -- 67
2018-09-18 03:00:00 18.2 20 Sur 32 Sur 0 -- -- 66
2018-09-18 02:00:00 18.1 18 Sur 28 Sur 0 -- -- 66
2018-09-18 01:00:00 17.9 8 Este 30 Sudeste 0 -- -- 69
2018-09-18 00:00:00 19.2 22 Sudeste 40 Sudeste 0 -- -- 62
2018-09-17 23:00:00 19.2 15 Este 36 Sudeste 0 -- -- 62
2018-09-17 22:00:00 19.4 17 Este 24 Este 0 -- -- 52
2018-09-17 21:00:00 19.7 8 Este 12 Este 0 -- -- 48
2018-09-17 20:00:00 20.7 8 Este 10 Este 0 -- -- 50
2018-09-17 19:00:00 22.9 4 Nordeste 11 Nordeste 0 -- -- 44
2018-09-17 18:00:00 21.6 5 Nordeste 23 Oeste 0 -- -- 52
2018-09-17 17:00:00 22.9 7 Nordeste 36 Sur 0 -- -- 46
2018-09-17 16:00:00 24.3 8 Este 17 Sur 0 -- -- 39
2018-09-17 15:00:00 24.3 12 Oeste 26 Sudoeste 0 -- -- 43
2018-09-17 14:00:00 26.9 11 Sur 27 Sudeste 0 -- -- 34
2018-09-17 13:00:00 26.5 12 Sur 28 Sudeste 0 -- -- 38
2018-09-17 12:00:00 25.1 9 Sur 19 Sur 0 -- -- 41
2018-09-17 11:00:00 23.8 11 Sur 19 Sur 0 -- -- 45
2018-09-17 10:00:00 21.6 13 Sur 24 Sur 0 -- -- 49
2018-09-17 09:00:00 19.5 17 Sur 28 Sur 0 -- -- 53
2018-09-17 08:00:00 18.7 19 Sur 28 Sur 0 -- -- 56
2018-09-17 07:00:00 18.8 17 Sur 31 Sudeste 0 -- -- 55
2018-09-17 06:00:00 19.3 18 Sur 30 Sur 0 -- -- 54
2018-09-17 05:00:00 19.7 14 Sur 19 Sur 0 -- -- 51
2018-09-17 04:00:00 19.7 11 Sur 19 Sudoeste 0 -- -- 52
2018-09-17 03:00:00 20 13 Sudoeste 20 Sudoeste 0 -- -- 51
2018-09-17 02:00:00 20.3 12 Sur 16 Sur 0 -- -- 50
2018-09-17 01:00:00 20.6 9 Sudeste 14 Sudeste 0 -- -- 48
2018-09-17 00:00:00 20.2 8 Sudeste 12 Sudeste 0 -- -- 50
2018-09-16 23:00:00 19.6 10 Sudeste 14 Este 0 -- -- 51
2018-09-16 22:00:00 19.8 8 Este 9 Este 0 -- -- 51
2018-09-16 21:00:00 22.1 5 Este 7 Este 0 -- -- 44
2018-09-16 20:00:00 23.9 3 Nordeste 12 Nordeste 0 -- -- 41
2018-09-16 19:00:00 25 8 Norte 15 Nordeste 0 -- -- 39
2018-09-16 18:00:00 26.7 9 Norte 21 Noroeste 0 -- -- 34
2018-09-16 17:00:00 28.3 7 Oeste 22 Oeste 0 -- -- 30
2018-09-16 16:00:00 27.1 9 Norte 26 Oeste 0 -- -- 33
2018-09-16 15:00:00 26.8 9 Oeste 26 Oeste 0 -- -- 36
2018-09-16 14:00:00 26.2 12 Oeste 22 Oeste 0 -- -- 36
2018-09-16 13:00:00 25.1 10 Oeste 20 Oeste 0 -- -- 41
2018-09-16 12:00:00 24.8 5 Sudoeste 12 Sudoeste 0 -- -- 42
2018-09-16 11:00:00 22.8 9 Sudoeste 23 Sudoeste 0 -- -- 49
2018-09-16 10:00:00 20.2 11 Sudoeste 20 Sudoeste 0 -- -- 56
2018-09-16 09:00:00 18.1 12 Sudoeste 18 Sudoeste 0 -- -- 61
2018-09-16 08:00:00 17.3 12 Sudoeste 21 Sudoeste 0 -- -- 63
2018-09-16 07:00:00 17.7 12 Sudoeste 19 Sudoeste 0 -- -- 62
2018-09-16 06:00:00 18.1 12 Sudoeste 20 Sudoeste 0 -- -- 61
2018-09-16 05:00:00 18.4 13 Sudoeste 25 Sudoeste 0 -- -- 61
2018-09-16 04:00:00 18.6 15 Sudoeste 25 Sudoeste 0 -- -- 62
2018-09-16 03:00:00 18.5 16 Sudoeste 25 Sur 0 -- -- 63
2018-09-16 02:00:00 18.4 16 Sudoeste 24 Sudoeste 0 -- -- 62
2018-09-16 01:00:00 19.1 3 Nordeste 17 Sur 0 -- -- 56
2018-09-16 00:00:00 19.7 9 Sur 21 Sudoeste 0 -- -- 55
2018-09-15 23:00:00 20.8 16 Sudoeste 26 Sur 0 -- -- 55
2018-09-15 22:00:00 22 15 Sur 21 Sur 0 -- -- 48
2018-09-15 21:00:00 22.7 12 Sur 21 Sur 0 -- -- 44
2018-09-15 20:00:00 25.5 5 Nordeste 10 Nordeste 0 -- -- 32
2018-09-15 19:00:00 27.7 6 Noroeste 19 Oeste 0 -- -- 26
2018-09-15 18:00:00 28.4 11 Oeste 22 Sudoeste 0 -- -- 26
2018-09-15 17:00:00 28.1 6 Sudeste 26 Oeste 0 -- -- 27
2018-09-15 16:00:00 27.2 16 Sudoeste 24 Sudoeste 0 -- -- 29
2018-09-15 15:00:00 27.1 10 Oeste 18 Oeste 0 -- -- 33
2018-09-15 14:00:00 25.9 8 Noroeste 17 Oeste 0 -- -- 36
2018-09-15 13:00:00 24.9 8 Oeste 17 Sudoeste 0 -- -- 42
2018-09-15 12:00:00 23.6 9 Oeste 20 Sudoeste 0 -- -- 44
2018-09-15 11:00:00 22.3 12 Sudoeste 17 Sudoeste 0 -- -- 49
2018-09-15 10:00:00 20.8 5 Sudoeste 11 Sur 0 -- -- 56
2018-09-15 09:00:00 18.8 3 Noroeste 19 Sudeste 0 -- -- 62
2018-09-15 08:00:00 17.8 6 Este 10 Este 0 -- -- 62
2018-09-15 07:00:00 17.7 3 Nordeste 6 Norte 0 -- -- 58
2018-09-15 06:00:00 18.5 3 Nordeste 19 Sur 0 -- -- 55
2018-09-15 05:00:00 18.9 4 Sudeste 17 Sudeste 0 -- -- 52
2018-09-15 04:00:00 19 14 Sudeste 20 Sudeste 0 -- -- 52
2018-09-15 03:00:00 18.8 14 Sudeste 18 Sudeste 0 -- -- 55
2018-09-15 02:00:00 19 13 Sudeste 24 Este 0 -- -- 55
2018-09-15 01:00:00 19.4 13 Este 30 Este 0 -- -- 57
2018-09-15 00:00:00 20.1 16 Este 33 Este 0 -- -- 56
2018-09-14 23:00:00 20.2 14 Este 19 Este 0 -- -- 48
2018-09-14 22:00:00 20.4 12 Este 16 Este 0 -- -- 47
2018-09-14 21:00:00 20.6 10 Este 14 Nordeste 0 -- -- 48
2018-09-14 20:00:00 23.1 10 Nordeste 19 Nordeste 0 -- -- 43
2018-09-14 19:00:00 25.5 6 Norte 14 Oeste 0 -- -- 36
2018-09-14 18:00:00 26.5 9 Noroeste 21 Oeste 0 -- -- 32
2018-09-14 17:00:00 27.8 12 Oeste 23 Oeste 0 -- -- 28
2018-09-14 16:00:00 27.9 12 Noroeste 22 Noroeste 0 -- -- 30
2018-09-14 15:00:00 26.8 9 Oeste 22 Oeste 0 -- -- 32
2018-09-14 14:00:00 26.1 8 Noroeste 19 Noroeste 0 -- -- 34
2018-09-14 13:00:00 26.2 7 Nordeste 14 Nordeste 0 -- -- 35
2018-09-14 12:00:00 25.3 8 Norte 14 Noroeste 0 -- -- 39
2018-09-14 11:00:00 25.1 3 Norte 6 Norte 0 -- -- 33
2018-09-14 10:00:00 22.6 0 Calma 4 Sudoeste 0 -- -- 31
2018-09-14 09:00:00 20.2 4 Sudoeste 6 Sur 0 -- -- 37
2018-09-14 08:00:00 19.3 5 Sudoeste 6 Sudoeste 0 -- -- 37
2018-09-14 07:00:00 18.8 5 Sudoeste 8 Sur 0 -- -- 38
2018-09-14 06:00:00 18.8 2 Sudoeste 4 Noroeste 0 -- -- 41
2018-09-14 05:00:00 19.3 3 Este 7 Este 0 -- -- 44
2018-09-14 04:00:00 18.4 7 Sudeste 10 Sudeste 0 -- -- 41
2018-09-14 03:00:00 17.8 10 Este -- -- 0 -- -- 39
2018-09-14 02:00:00 17.9 9 Este 12 Este 0 -- -- 39
2018-09-14 01:00:00 17.4 10 Sudeste 16 Este 0 -- -- 47
2018-09-14 00:00:00 18.5 12 Este 14 Este 0 -- -- 54
2018-09-13 23:00:00 18.2 12 Este 15 Este 0 -- -- 56
2018-09-13 22:00:00 19 11 Este 15 Nordeste 0 -- -- 55
2018-09-13 21:00:00 20.7 7 Nordeste 14 Norte 0 -- -- 49
2018-09-13 20:00:00 23.9 8 Nordeste 14 Norte 0 -- -- 43
2018-09-13 19:00:00 26.7 8 Noroeste 16 Oeste 0 -- -- 35
2018-09-13 18:00:00 27.3 10 Noroeste 22 Oeste 0 -- -- 31
2018-09-13 17:00:00 26.9 12 Noroeste 26 Oeste 0 -- -- 31
2018-09-13 16:00:00 26.7 10 Oeste 22 Noroeste 0 -- -- 32
2018-09-13 15:00:00 25.9 15 Oeste 22 Oeste 0 -- -- 38
2018-09-13 14:00:00 25.5 10 Oeste 21 Oeste 0 -- -- 41
2018-09-13 13:00:00 24.4 12 Oeste 20 Oeste 0 -- -- 46
2018-09-13 12:00:00 23.5 8 Norte 15 Norte 0 -- -- 49
2018-09-13 11:00:00 23.2 4 Noroeste 11 Sur 0 -- -- 50
2018-09-13 10:00:00 21.4 4 Sur 8 Sudeste 0 -- -- 51
2018-09-13 09:00:00 19.1 5 Sur 7 Sur 0 -- -- 54
2018-09-13 08:00:00 17.3 3 Sur 5 Sur 0 -- -- 55
2018-09-13 07:00:00 17.8 4 Sur 7 Sudoeste 0 -- -- 53
2018-09-13 06:00:00 17.9 5 Sudoeste 11 Sudoeste 0 -- -- 53
2018-09-13 05:00:00 17.3 8 Sudoeste 12 Oeste 0 -- -- 57
2018-09-13 04:00:00 17.8 7 Sudoeste 13 Sudoeste 0 -- -- 57
2018-09-13 03:00:00 18.2 2 Sudeste 6 Sudeste 0 -- -- 56
2018-09-13 02:00:00 19.3 5 Sudeste 10 Este 0 -- -- 53
2018-09-13 01:00:00 19.7 7 Sudeste 8 Sudeste 0 -- -- 51
2018-09-13 00:00:00 20.3 3 Este 8 Sur 0 -- -- 47
2018-09-12 23:00:00 21 3 Sudoeste 8 Oeste 0 -- -- 46
2018-09-12 22:00:00 21.4 3 Oeste 8 Sudoeste 0 -- -- 46
2018-09-12 21:00:00 22.5 3 Noroeste 9 Norte 0 -- -- 42
2018-09-12 20:00:00 24.3 6 Norte 19 Noroeste 0 -- -- 39
2018-09-12 19:00:00 26.1 11 Oeste 24 Oeste 0 -- -- 37
2018-09-12 18:00:00 25.6 9 Oeste 22 Oeste 0 -- -- 36
2018-09-12 17:00:00 26.5 13 Oeste 22 Oeste 0 -- -- 34
2018-09-12 16:00:00 25.5 13 Oeste 23 Oeste 0 -- -- 40
2018-09-12 15:00:00 25.7 10 Norte 21 Oeste 0 -- -- 39
2018-09-12 14:00:00 24.9 7 Noroeste 19 Oeste 0 -- -- 42
2018-09-12 13:00:00 23.6 7 Oeste 14 Oeste 0 -- -- 50
2018-09-12 12:00:00 22.3 5 Oeste 18 Oeste 0 -- -- 55
2018-09-12 11:00:00 21.1 10 Oeste 22 Sudoeste 0 -- -- 58
2018-09-12 10:00:00 20.4 5 Oeste 9 Oeste 0 -- -- 59
2018-09-12 09:00:00 18 7 Sur 8 Sur 0 -- -- 63
2018-09-12 08:00:00 16 6 Sudeste 10 Sudeste 0 -- -- 65
2018-09-12 07:00:00 16.2 5 Sur 14 Sudeste 0 -- -- 66
2018-09-12 06:00:00 17 12 Sudeste 15 Sudeste 0 -- -- 61
2018-09-12 05:00:00 16.5 8 Sudeste 11 Sudeste 0 -- -- 66
2018-09-12 04:00:00 16.7 3 Norte 13 Sur 0 -- -- 64
2018-09-12 03:00:00 17.4 7 Sur 27 Sudeste 0 -- -- 60
2018-09-12 02:00:00 17.9 15 Sur 26 Sur 0 -- -- 61
2018-09-12 01:00:00 16.9 13 Sur 36 Sur 0 -- -- 65
2018-09-12 00:00:00 17.4 23 Sur 35 Sur 0 -- -- 67
2018-09-11 23:00:00 17.4 14 Sudeste 32 Este 0 -- -- 64
2018-09-11 22:00:00 18.2 18 Sudeste 36 Sudeste 0 -- -- 61
2018-09-11 21:00:00 17.6 15 Este 32 Nordeste 0 -- -- 66
2018-09-11 20:00:00 17.9 19 Este 41 Nordeste 0 -- -- 69
2018-09-11 19:00:00 18.7 28 Este 54 Este 0 -- -- 66
2018-09-11 18:00:00 22.3 30 Este 46 Este 0 -- -- 44
2018-09-11 17:00:00 23.9 12 Este 25 Este 0 -- -- 41
2018-09-11 16:00:00 25.5 8 Sudeste 30 Este 0 -- -- 36
2018-09-11 15:00:00 24.1 8 Este 25 Sudeste 0 -- -- 38
2018-09-11 14:00:00 22.6 7 Este 18 Nordeste 0 -- -- 47
2018-09-11 13:00:00 23.1 8 Sudeste 14 Sudoeste 0 -- -- 47
2018-09-11 12:00:00 22.5 6 Sur 18 Sudeste 0 -- -- 51
2018-09-11 11:00:00 21.4 8 Sudeste 13 Sur 0 -- -- 54
2018-09-11 10:00:00 19.8 6 Sudeste 11 Este 0 -- -- 64
2018-09-11 09:00:00 16.6 9 Sudeste 10 Sudeste 0 -- -- 76
2018-09-11 08:00:00 15.7 7 Sudeste 12 Sudeste 0 -- -- 77
2018-09-11 07:00:00 15.4 6 Sudeste 10 Sudeste 0 -- -- 78
2018-09-11 06:00:00 15.3 6 Sudeste 12 Sur 0 -- -- 78
2018-09-11 05:00:00 16.2 8 Sudeste 11 Sur 0 -- -- 74
2018-09-11 04:00:00 16.5 4 Sudeste 14 Sur 0 -- -- 71
2018-09-11 03:00:00 17.4 3 Nordeste 15 Nordeste 0 -- -- 67
2018-09-11 02:00:00 18.1 10 Sudeste 22 Sudeste 0 -- -- 65
2018-09-11 01:00:00 18.5 12 Sudeste 25 Sudeste 0 -- -- 63
2018-09-11 00:00:00 19.3 20 Sudeste 31 Sudeste 0 -- -- 60
2018-09-10 23:00:00 19.7 18 Sudeste 27 Sudeste 0 -- -- 60
2018-09-10 22:00:00 19.9 12 Este 20 Sudeste 0 -- -- 54
2018-09-10 21:00:00 20.4 12 Este 19 Sudeste 0 -- -- 52
2018-09-10 20:00:00 22.5 10 Este 21 Este 0 -- -- 47
2018-09-10 19:00:00 24.1 12 Nordeste 24 Nordeste 0 -- -- 39
2018-09-10 18:00:00 24.9 11 Nordeste 23 Norte 0 -- -- 40
2018-09-10 17:00:00 24.7 9 Nordeste 29 Nordeste 0 -- -- 39
2018-09-10 16:00:00 23.7 15 Nordeste 27 Nordeste 0 -- -- 42
2018-09-10 15:00:00 22.2 14 Nordeste 28 Nordeste 0 -- -- 50
2018-09-10 14:00:00 21.6 9 Nordeste 21 Este 0 -- -- 52
2018-09-10 13:00:00 22.5 10 Nordeste 19 Nordeste 0 -- -- 51
2018-09-10 12:00:00 21.1 11 Este 22 Este 0 -- -- 56
2018-09-10 11:00:00 18.9 8 Norte 14 Norte 0 -- -- 72
2018-09-10 10:00:00 18.1 6 Noroeste 17 Sudeste 0 -- -- 75
2018-09-10 09:00:00 16.2 10 Este 21 Este 0 -- -- 79
2018-09-10 08:00:00 14.1 9 Este 15 Este 0 -- -- 87
2018-09-10 07:00:00 12.7 8 Sudeste 10 Sudeste 0 -- -- 86
2018-09-10 06:00:00 13 6 Este 12 Nordeste 0 -- -- 91
2018-09-10 05:00:00 13.5 6 Nordeste 12 Sudeste 0 -- -- 88
2018-09-10 04:00:00 15.8 8 Este 23 Sudeste 0 -- -- 79
2018-09-10 03:00:00 16 13 Este 30 Este 0 -- -- 81
2018-09-10 02:00:00 16.3 15 Este 27 Este 0 -- -- 79
2018-09-10 01:00:00 15.9 15 Este 24 Este 0 -- -- 77
2018-09-10 00:00:00 14.8 8 Este 13 Este 0 -- -- 80
2018-09-09 23:00:00 15.5 6 Este 8 Este 0 -- -- 77
2018-09-09 22:00:00 16.8 4 Nordeste 19 Nordeste 0 -- -- 73
2018-09-09 21:00:00 18.3 10 Nordeste 25 Norte 0 -- -- 67
2018-09-09 20:00:00 20.8 7 Norte 18 Norte 0 -- -- 48
2018-09-09 19:00:00 22 7 Norte 16 Norte 0 -- -- 46
2018-09-09 18:00:00 22.7 8 Norte 22 Norte 0 -- -- 45
2018-09-09 17:00:00 23.7 8 Oeste 22 Noroeste 0 -- -- 42
2018-09-09 16:00:00 23.2 9 Oeste 18 Noroeste 0 -- -- 43
2018-09-09 15:00:00 22.2 9 Noroeste 19 Norte 0 -- -- 48
2018-09-09 14:00:00 21.5 9 Noroeste 19 Noroeste 0 -- -- 50
2018-09-09 13:00:00 20.8 6 Oeste 14 Oeste 0 -- -- 51
2018-09-09 12:00:00 19.8 6 Noroeste 14 Oeste 0 -- -- 57
2018-09-09 11:00:00 18.6 7 Oeste 11 Oeste 0 -- -- 61
2018-09-09 10:00:00 18.3 3 Nordeste 7 Este 0 -- -- 66
2018-09-09 09:00:00 14.5 4 Sudeste 6 Sudeste 0 -- -- 79
2018-09-09 08:00:00 12.2 2 Nordeste 8 Este 0 -- -- 84
2018-09-09 07:00:00 12.1 4 Este 12 Este 0 -- -- 83
2018-09-09 06:00:00 11.7 9 Sudeste 15 Este 0 -- -- 86
2018-09-09 05:00:00 12.6 8 Sur 22 Sur 0 -- -- 84
2018-09-09 04:00:00 12.4 16 Sur 35 Sudoeste 0.2 -- -- 88
2018-09-09 03:00:00 12.4 24 Sudoeste 58 Sudoeste 0.4 -- -- 87
2018-09-09 02:00:00 16.9 15 Sudoeste 23 Sudoeste 0 -- -- 66
2018-09-09 01:00:00 17.2 10 Sudoeste 17 Sur 0 -- -- 68
2018-09-09 00:00:00 16 7 Sudeste 11 Este 0 -- -- 78
2018-09-08 23:00:00 16.5 7 Este 10 Este 0 -- -- 75
2018-09-08 22:00:00 16.6 4 Nordeste 14 Nordeste 0 -- -- 74
2018-09-08 21:00:00 16.3 5 Nordeste 20 Este 0 -- -- 76
2018-09-08 20:00:00 17.7 12 Sudeste 22 Sudeste 0 -- -- 71
2018-09-08 19:00:00 18.7 14 Sur 22 Sur 0 -- -- 65
2018-09-08 18:00:00 19.7 8 Sudoeste 21 Sudoeste 0 -- -- 54
2018-09-08 17:00:00 20.3 12 Oeste 27 Sudoeste 0 -- -- 52
2018-09-08 16:00:00 20.9 20 Oeste 44 Sudoeste 0 -- -- 50
2018-09-08 15:00:00 22.6 24 Sudoeste 39 Oeste 0 -- -- 50
2018-09-08 14:00:00 23.2 21 Sur 37 Sudeste 0 -- -- 47
2018-09-08 13:00:00 23.9 16 Sudeste 26 Sudeste 0 -- -- 47
2018-09-08 12:00:00 21.8 9 Sudeste 25 Sur 0 -- -- 54
2018-09-08 11:00:00 20 15 Sudeste 24 Sudeste 0 -- -- 62
2018-09-08 10:00:00 18.8 9 Sudeste 24 Sudeste 0 -- -- 62
2018-09-08 09:00:00 16.1 10 Sudeste 23 Sudeste 0 -- -- 72
2018-09-08 08:00:00 13.3 8 Nordeste 25 Sudeste 0 -- -- 79
2018-09-08 07:00:00 14.8 10 Sudeste 24 Sudeste 0 -- -- 69
2018-09-08 06:00:00 14.5 12 Sudeste 16 Sudeste 0 -- -- 75
2018-09-08 05:00:00 14.5 4 Sudeste 37 Sur 1 -- -- 80
2018-09-08 04:00:00 15.4 27 Sur 47 Sur 0.2 -- -- 76
2018-09-08 03:00:00 16.5 30 Sur 44 Sudeste 0 -- -- 69
2018-09-08 02:00:00 17 27 Sudeste 37 Sudeste 0 -- -- 65
2018-09-08 01:00:00 17.7 23 Sudeste 35 Sudeste 0 -- -- 65
2018-09-08 00:00:00 16.9 11 Este 37 Sudeste 0 -- -- 71
2018-09-07 23:00:00 17.2 19 Este 31 Este 0 -- -- 70
2018-09-07 22:00:00 16.7 12 Este 17 Este 0 -- -- 69
2018-09-07 21:00:00 18.4 5 Este 12 Norte 0 -- -- 60
2018-09-07 20:00:00 21.2 6 Norte 14 Norte 0 -- -- 49
2018-09-07 19:00:00 22.6 8 Nordeste 17 Norte 0 -- -- 46
2018-09-07 18:00:00 23.1 9 Noroeste 14 Noroeste 0 -- -- 44
2018-09-07 17:00:00 22.3 9 Este 21 Nordeste 0 -- -- 47
2018-09-07 16:00:00 21.9 10 Nordeste 24 Norte 0 -- -- 50
2018-09-07 15:00:00 21.5 14 Norte 26 Nordeste 0 -- -- 52
2018-09-07 14:00:00 20.6 14 Nordeste 23 Este 0 -- -- 55
2018-09-07 13:00:00 20.4 9 Nordeste 21 Este 0 -- -- 56
2018-09-07 12:00:00 18.9 11 Este 21 Nordeste 0 -- -- 63
2018-09-07 11:00:00 17.7 12 Este 23 Este 0 -- -- 65
2018-09-07 10:00:00 15.7 16 Este 30 Este 0 -- -- 70
2018-09-07 09:00:00 14.3 13 Este 23 Este 0 -- -- 75
2018-09-07 08:00:00 12.8 16 Este 29 Este 0 -- -- 80
2018-09-07 07:00:00 12.8 15 Este 30 Este 0 -- -- 80
2018-09-07 06:00:00 12.4 17 Este 30 Este 0 -- -- 85
2018-09-07 05:00:00 12.6 18 Este 31 Este 0 -- -- 85
2018-09-07 04:00:00 12.9 19 Este 31 Este 0 -- -- 85
2018-09-07 03:00:00 12.9 18 Este 32 Este 0 -- -- 88
2018-09-07 02:00:00 11.9 14 Nordeste 20 Nordeste 0 -- -- 94
2018-09-07 01:00:00 12 8 Nordeste 15 Este 0 -- -- 92
2018-09-07 00:00:00 12.6 10 Nordeste 15 Nordeste 0 -- -- 91
2018-09-06 23:00:00 13.6 6 Nordeste 9 Nordeste 0 -- -- 86
2018-09-06 22:00:00 14.7 6 Nordeste 11 Nordeste 0 -- -- 81
2018-09-06 21:00:00 16.5 5 Nordeste 11 Este 0 -- -- 71
2018-09-06 20:00:00 18.2 5 Este 21 Este 0 -- -- 66
2018-09-06 19:00:00 19.2 13 Nordeste 27 Este 0 -- -- 60
2018-09-06 18:00:00 19.5 10 Norte 23 Nordeste 0 -- -- 54
2018-09-06 17:00:00 20.6 12 Norte 20 Nordeste 0 -- -- 56
2018-09-06 16:00:00 18.1 7 Norte 21 Noroeste 0 -- -- 72
2018-09-06 15:00:00 17.6 3 Noroeste 8 Noroeste 0 -- -- 79
2018-09-06 14:00:00 16.4 2 Norte 9 Norte 0 -- -- 88
2018-09-06 13:00:00 15.7 2 Norte 6 Este 0.2 -- -- 88
2018-09-06 12:00:00 14.5 4 Este 10 Nordeste 0.8 -- -- 94
2018-09-06 11:00:00 14.4 5 Nordeste 13 Nordeste 0 -- -- 91
2018-09-06 10:00:00 15.2 6 Nordeste 10 Nordeste 0 -- -- 91
2018-09-06 09:00:00 13.5 2 Este 6 Norte 0 -- -- 95
2018-09-06 08:00:00 13.4 3 Sudeste 4 Sur 0 -- -- 93
2018-09-06 07:00:00 13.4 3 Sudeste 4 Sudeste 0 -- -- 94
2018-09-06 06:00:00 13.4 0 Calma 6 Sudoeste 0 -- -- 94
2018-09-06 05:00:00 13.5 4 Sudoeste 6 Sudoeste 0 -- -- 93
2018-09-06 04:00:00 13.7 3 Nordeste 14 Norte 0 -- -- 91
2018-09-06 03:00:00 14.5 6 Sudeste 8 Sur 0 -- -- 84
2018-09-06 02:00:00 14.5 5 Sudeste 8 Sudeste 0 -- -- 89
2018-09-06 01:00:00 14.5 3 Nordeste 10 Sudoeste 0 -- -- 89
2018-09-06 00:00:00 14.9 9 Sudoeste 18 Sudoeste 0 -- -- 83
2018-09-05 23:00:00 15.4 5 Sur 10 Oeste 0 -- -- 80
2018-09-05 22:00:00 15.9 5 Este 18 Sur 0 -- -- 73
2018-09-05 21:00:00 16.1 10 Sur 15 Sudoeste 0 -- -- 69
2018-09-05 20:00:00 16.6 8 Sudoeste 15 Sur 0.2 -- -- 74
2018-09-05 19:00:00 15.1 6 Oeste 37 Sudoeste 1.2 -- -- 87
2018-09-05 18:00:00 17.9 12 Sur 25 Sudeste 0.2 -- -- 72
2018-09-05 17:00:00 17.5 19 Sudeste 43 Sur 0.2 -- -- 70
2018-09-05 16:00:00 21.5 8 Oeste 23 Oeste 0 -- -- 54
2018-09-05 15:00:00 20.9 12 Noroeste 25 Oeste 0 -- -- 56
2018-09-05 14:00:00 20.1 16 Oeste 28 Oeste 0 -- -- 62
2018-09-05 13:00:00 19.2 16 Oeste 25 Sudoeste 0 -- -- 69
2018-09-05 12:00:00 19.1 14 Sudoeste 24 Oeste 0 -- -- 75
2018-09-05 11:00:00 18.2 13 Sudoeste 24 Sudoeste 0 -- -- 77
2018-09-05 10:00:00 16.4 8 Sudoeste 20 Sudoeste 0 -- -- 81
2018-09-05 09:00:00 15.2 5 Sudoeste 11 Sudoeste 0 -- -- 79
2018-09-05 08:00:00 14.3 3 Sur 17 Sudoeste 0 -- -- 81
2018-09-05 07:00:00 14.3 6 Sudoeste 20 Sur 0 -- -- 78
2018-09-05 06:00:00 15.2 7 Sur 16 Sur 0 -- -- 73
2018-09-05 05:00:00 17.1 12 Sur 26 Sur 0 -- -- 65
2018-09-05 04:00:00 16.1 6 Oeste 22 Sudeste 0 -- -- 69
2018-09-05 03:00:00 18.4 15 Sudeste 24 Sudeste 0.2 -- -- 58
2018-09-05 02:00:00 17.7 16 Sudeste 29 Sudeste 0 -- -- 60
2018-09-05 01:00:00 15.5 8 Nordeste 21 Sudeste 0 -- -- 75
2018-09-05 00:00:00 17 16 Sudeste 35 Sudeste 0 -- -- 72
2018-09-04 23:00:00 16.4 12 Este 28 Este 0 -- -- 75
2018-09-04 22:00:00 16.3 8 Sur 42 Norte 1 -- -- 72
2018-09-04 21:00:00 16.6 27 Sur 46 Sur 1 -- -- 67
2018-09-04 20:00:00 17.9 25 Sur 38 Sur 0 -- -- 70
2018-09-04 19:00:00 17.6 16 Este 28 Este 0.2 -- -- 65
2018-09-04 18:00:00 16.5 14 Sur 37 Sudeste 4.6 -- -- 75
2018-09-04 17:00:00 20.1 31 Sudeste 51 Sudeste 0.2 -- -- 52
2018-09-04 16:00:00 26.2 16 Sudoeste 36 Noroeste 0 -- -- 39
2018-09-04 15:00:00 25.4 7 Oeste 22 Sur 0 -- -- 40
2018-09-04 14:00:00 24.8 11 Sudoeste 35 Oeste 0 -- -- 40
2018-09-04 13:00:00 23.5 14 Sudoeste 28 Sudoeste 0 -- -- 46
2018-09-04 12:00:00 22.6 17 Sudoeste 29 Sudoeste 0 -- -- 47
2018-09-04 11:00:00 21.7 11 Sudoeste 21 Sudoeste 0 -- -- 54
2018-09-04 10:00:00 19.9 5 Sudoeste 8 Sudoeste 0 -- -- 62
2018-09-04 09:00:00 17.2 2 Sudoeste 4 Sur 0 -- -- 67
2018-09-04 08:00:00 15.6 0 Calma 9 Sudeste 0 -- -- 73
2018-09-04 07:00:00 15.6 4 Este 17 Sur 0 -- -- 73
2018-09-04 06:00:00 16.9 14 Sur 29 Sur 0 -- -- 69
2018-09-04 05:00:00 17.2 17 Sur 26 Sur 0 -- -- 69
2018-09-04 04:00:00 17 14 Sudoeste 23 Sudoeste 0 -- -- 68
2018-09-04 03:00:00 14.9 9 Sudoeste 14 Sudoeste 0 -- -- 71
2018-09-04 02:00:00 16.2 8 Oeste 12 Sudoeste 0 -- -- 63
2018-09-04 01:00:00 17.5 3 Sur 28 Sur 0 -- -- 58
2018-09-04 00:00:00 20.9 21 Sur 30 Sudoeste 0 -- -- 44
2018-09-03 23:00:00 19.7 9 Sudoeste 13 Sur 0 -- -- 51
2018-09-03 22:00:00 21 4 Sur 14 Noroeste 0 -- -- 50
2018-09-03 21:00:00 23.5 3 Noroeste 17 Sur 0 -- -- 43
2018-09-03 20:00:00 25.9 7 Sudeste 19 Sudeste 0 -- -- 36
2018-09-03 19:00:00 27.2 7 Sur 19 Sudoeste 0 -- -- 34
2018-09-03 18:00:00 26.9 13 Sudeste 23 Sur 0 -- -- 35
2018-09-03 17:00:00 28.3 12 Este 25 Nordeste 0 -- -- 33
2018-09-03 16:00:00 27.9 11 Nordeste 32 Nordeste 0 -- -- 34
2018-09-03 15:00:00 27.7 16 Nordeste 32 Nordeste 0 -- -- 35
2018-09-03 14:00:00 26.5 18 Norte 35 Nordeste 0 -- -- 36
2018-09-03 13:00:00 24.8 21 Nordeste 36 Nordeste 0 -- -- 40
2018-09-03 12:00:00 26.1 14 Noroeste 22 Sudeste 0 -- -- 39
2018-09-03 11:00:00 26.2 9 Este 21 Este 0 -- -- 34
2018-09-03 10:00:00 23.7 16 Sudeste 26 Sudeste 0 -- -- 41
2018-09-03 09:00:00 21.7 11 Sudeste 16 Este 0 -- -- 41
2018-09-03 08:00:00 19.4 12 Este 15 Este 0 -- -- 48
2018-09-03 07:00:00 19.2 9 Sudoeste 24 Noroeste 0 -- -- 48
2018-09-03 06:00:00 22.4 4 Sur 30 Sur 0 -- -- 39
2018-09-03 05:00:00 22.1 17 Sur 42 Sur 0 -- -- 42
2018-09-03 04:00:00 22 20 Sur 45 Sudoeste 0 -- -- 41
2018-09-03 03:00:00 22.3 4 Nordeste 27 Sudeste 0 -- -- 41
2018-09-03 02:00:00 23.3 19 Sudeste 34 Sudeste 0 -- -- 42
2018-09-03 01:00:00 23.2 14 Este 24 Este 0 -- -- 42
2018-09-03 00:00:00 22.8 13 Este 20 Este 0 -- -- 38
2018-09-02 23:00:00 22.5 13 Este 15 Este 0 -- -- 38
2018-09-02 22:00:00 23.4 8 Este 9 Este 0 -- -- 37
2018-09-02 21:00:00 25.9 4 Nordeste 13 Norte 0 -- -- 34
2018-09-02 20:00:00 29.1 6 Noroeste 15 Noroeste 0 -- -- 28
2018-09-02 19:00:00 30.3 15 Oeste 26 Oeste 0 -- -- 27
2018-09-02 18:00:00 30.7 12 Noroeste 31 Oeste 0 -- -- 26
2018-09-02 17:00:00 31.3 11 Oeste 31 Noroeste 0 -- -- 26
2018-09-02 16:00:00 30.8 15 Noroeste 27 Oeste 0 -- -- 26
2018-09-02 15:00:00 30.2 13 Oeste 24 Oeste 0 -- -- 27
2018-09-02 14:00:00 29.6 9 Oeste 19 Noroeste 0 -- -- 28
2018-09-02 13:00:00 28.7 7 Norte 13 Norte 0 -- -- 29
2018-09-02 12:00:00 27.4 6 Norte 14 Norte 0 -- -- 35
2018-09-02 11:00:00 25.9 8 Nordeste 12 Nordeste 0 -- -- 39
2018-09-02 10:00:00 25 3 Nordeste 5 Sudoeste 0 -- -- 38
2018-09-02 09:00:00 22.2 3 Sudoeste 5 Este 0 -- -- 41
2018-09-02 08:00:00 20.8 5 Este 11 Este 0 -- -- 39
2018-09-02 07:00:00 20.3 8 Este 10 Sudeste 0 -- -- 41
2018-09-02 06:00:00 20.3 9 Este -- -- 0 -- -- 43
2018-09-02 05:00:00 20.4 10 Sudeste 13 Sudeste 0 -- -- 44
2018-09-02 04:00:00 20.1 12 Sudeste 17 Sudeste 0 -- -- 47
2018-09-02 03:00:00 20.1 13 Sudeste 18 Este 0 -- -- 49
2018-09-02 02:00:00 20.8 12 Este 22 Este 0 -- -- 48
2018-09-02 01:00:00 21.2 13 Este 25 Este 0 -- -- 48
2018-09-02 00:00:00 20.9 12 Este 23 Este 0 -- -- 48
2018-09-01 23:00:00 19.6 13 Este 15 Este 0 -- -- 50
2018-09-01 22:00:00 21.2 11 Nordeste 15 Norte 0 -- -- 45
2018-09-01 21:00:00 24.2 6 Norte 13 Norte 0 -- -- 36
2018-09-01 20:00:00 27.2 8 Norte 15 Norte 0 -- -- 31
2018-09-01 19:00:00 28.8 10 Noroeste 18 Noroeste 0 -- -- 29
2018-09-01 18:00:00 28.9 8 Norte 19 Norte 0 -- -- 30
2018-09-01 17:00:00 29.1 8 Noroeste 19 Norte 0 -- -- 31
2018-09-01 16:00:00 28.2 7 Norte 21 Norte 0 -- -- 33
2018-09-01 15:00:00 27.8 11 Norte 24 Nordeste 0 -- -- 34
2018-09-01 14:00:00 26.9 11 Norte 23 Nordeste 0 -- -- 36
2018-09-01 13:00:00 26.3 13 Nordeste 24 Norte 0 -- -- 39
2018-09-01 12:00:00 24.9 11 Norte 22 Nordeste 0 -- -- 44
2018-09-01 11:00:00 24 11 Nordeste 18 Nordeste 0 -- -- 43
2018-09-01 10:00:00 22.1 9 Este 22 Este 0 -- -- 49
2018-09-01 09:00:00 19.9 6 Este 16 Nordeste 0 -- -- 57
2018-09-01 08:00:00 17.6 5 Este 25 Este 0 -- -- 62
2018-09-01 07:00:00 17.9 15 Este 28 Este 0 -- -- 62
2018-09-01 06:00:00 16.9 15 Este 26 Este 0 -- -- 65
2018-09-01 05:00:00 15.4 10 Nordeste 17 Nordeste 0 -- -- 73
2018-09-01 04:00:00 16.4 6 Nordeste 9 Nordeste 0 -- -- 70
2018-09-01 03:00:00 16.6 5 Nordeste 19 Sudeste 0 -- -- 68
2018-09-01 02:00:00 16.2 9 Este 17 Nordeste 0 -- -- 69
2018-09-01 01:00:00 15.4 7 Este 10 Este 0 -- -- 73
2018-09-01 00:00:00 16.7 3 Este 6 Norte 0 -- -- 67
2018-08-31 23:00:00 18.4 3 Sudeste 8 Norte 0 -- -- 61
2018-08-31 22:00:00 19.4 4 Nordeste 13 Norte 0 -- -- 57
2018-08-31 21:00:00 21.3 8 Norte 20 Norte 0 -- -- 50
2018-08-31 20:00:00 24 11 Norte 24 Norte 0 -- -- 41
2018-08-31 19:00:00 25.8 9 Norte 22 Norte 0 -- -- 34
2018-08-31 18:00:00 26.5 12 Norte 22 Norte 0 -- -- 31
2018-08-31 17:00:00 27 12 Norte 30 Noroeste 0 -- -- 30
2018-08-31 16:00:00 26.8 12 Noroeste 28 Norte 0 -- -- 29
2018-08-31 15:00:00 26.2 10 Noroeste 22 Noroeste 0 -- -- 36
2018-08-31 14:00:00 25.2 11 Noroeste 23 Norte 0 -- -- 43
2018-08-31 13:00:00 24.6 9 Norte 17 Norte 0 -- -- 48
2018-08-31 12:00:00 23.6 7 Nordeste 14 Norte 0 -- -- 50
2018-08-31 11:00:00 23 6 Norte 9 Norte 0 -- -- 53
2018-08-31 10:00:00 20.3 5 Nordeste 8 Norte 0 -- -- 63
2018-08-31 09:00:00 17.7 6 Norte 10 Este 0 -- -- 72
2018-08-31 08:00:00 15.7 9 Nordeste 16 Este 0 -- -- 77
2018-08-31 07:00:00 14.2 10 Nordeste 13 Nordeste 0 -- -- 83
2018-08-31 06:00:00 15.2 9 Este 10 Nordeste 0 -- -- 77
2018-08-31 05:00:00 16 4 Nordeste 6 Este 0 -- -- 70
2018-08-31 04:00:00 15.8 6 Este 12 Nordeste 0 -- -- 74
2018-08-31 03:00:00 18.5 7 Sudeste 14 Sudeste 0 -- -- 64
2018-08-31 02:00:00 18.9 12 Sudeste 16 Sudeste 0 -- -- 64
2018-08-31 01:00:00 19.2 11 Sudeste 22 Sudeste 0 -- -- 62
2018-08-31 00:00:00 18.7 10 Nordeste 17 Nordeste 0 -- -- 59
2018-08-30 23:00:00 19.2 9 Este 15 Nordeste 0 -- -- 52
2018-08-30 22:00:00 21.4 6 Nordeste 12 Norte 0 -- -- 45
2018-08-30 21:00:00 22.9 6 Norte 15 Norte 0 -- -- 42
2018-08-30 20:00:00 26.1 8 Noroeste 20 Oeste 0 -- -- 36
2018-08-30 19:00:00 27.2 9 Norte 22 Oeste 0 -- -- 33
2018-08-30 18:00:00 27.9 12 Oeste 24 Oeste 0 -- -- 32
2018-08-30 17:00:00 28 7 Oeste 27 Oeste 0 -- -- 33
2018-08-30 16:00:00 27.5 6 Noroeste 25 Oeste 0 -- -- 35
2018-08-30 15:00:00 26.9 12 Oeste 22 Sudoeste 0 -- -- 37
2018-08-30 14:00:00 25.5 10 Norte 19 Nordeste 0 -- -- 43
2018-08-30 13:00:00 24.9 7 Norte 17 Oeste 0 -- -- 48
2018-08-30 12:00:00 23.2 6 Oeste 10 Noroeste 0 -- -- 55
2018-08-30 11:00:00 20.8 5 Oeste 9 Noroeste 0 -- -- 63
2018-08-30 10:00:00 19.1 6 Oeste 9 Oeste 0 -- -- 69
2018-08-30 09:00:00 19.2 4 Este 13 Sudeste 0 -- -- 68
2018-08-30 08:00:00 16.4 9 Sudeste 12 Sudeste 0 -- -- 76
2018-08-30 07:00:00 14.8 5 Nordeste 9 Nordeste 0 -- -- 83
2018-08-30 06:00:00 15.4 7 Nordeste 9 Nordeste 0 -- -- 80
2018-08-30 05:00:00 17.2 4 Nordeste 32 Este 0 -- -- 72
2018-08-30 04:00:00 17.7 19 Este 35 Este 0 -- -- 71
2018-08-30 03:00:00 18.1 19 Este 36 Sudeste 0 -- -- 70
2018-08-30 02:00:00 18.5 23 Este 38 Este 0 -- -- 68
2018-08-30 01:00:00 18.7 22 Este 33 Este 0 -- -- 68
2018-08-30 00:00:00 19.2 18 Este 36 Este 0 -- -- 66
2018-08-29 23:00:00 19.7 19 Este 30 Este 0 -- -- 64
2018-08-29 22:00:00 19.4 11 Nordeste 17 Norte 0 -- -- 64
2018-08-29 21:00:00 21.5 13 Nordeste 24 Nordeste 0 -- -- 56
2018-08-29 20:00:00 24 14 Norte 23 Nordeste 0 -- -- 44
2018-08-29 19:00:00 25.8 12 Norte 22 Norte 0 -- -- 39
2018-08-29 18:00:00 26.7 10 Norte 23 Oeste 0 -- -- 35
2018-08-29 17:00:00 27 9 Norte 21 Norte 0 -- -- 36
2018-08-29 16:00:00 26.6 12 Noroeste 24 Noroeste 0 -- -- 37
2018-08-29 15:00:00 26.2 9 Norte 18 Noroeste 0 -- -- 40
2018-08-29 14:00:00 25.2 9 Noroeste 17 Noroeste 0 -- -- 43
2018-08-29 13:00:00 24.4 6 Norte 17 Noroeste 0 -- -- 47
2018-08-29 12:00:00 23.2 5 Oeste 13 Noroeste 0 -- -- 49
2018-08-29 11:00:00 21.8 6 Noroeste 10 Noroeste 0 -- -- 54
2018-08-29 10:00:00 20.6 5 Nordeste 10 Nordeste 0 -- -- 57
2018-08-29 09:00:00 17.9 7 Sudoeste 11 Sudoeste 0 -- -- 64
2018-08-29 08:00:00 15.2 8 Sudeste 10 Este 0 -- -- 67
2018-08-29 07:00:00 15.8 6 Nordeste 18 Sur 0 -- -- 64
2018-08-29 06:00:00 17.2 11 Sur 18 Sudoeste 0 -- -- 61
2018-08-29 05:00:00 17.5 12 Sur 19 Sudoeste 0 -- -- 60
2018-08-29 04:00:00 19.3 6 Sur 8 Sur 0 -- -- 51
2018-08-29 03:00:00 18.6 6 Sudeste 8 Sudeste 0 -- -- 55
2018-08-29 02:00:00 18.9 7 Sur 12 Sudoeste 0 -- -- 55
2018-08-29 01:00:00 19.4 10 Sudoeste 13 Sudoeste 0 -- -- 54
2018-08-29 00:00:00 20 9 Sudoeste 26 Sudoeste 0 -- -- 49
2018-08-28 23:00:00 21.4 14 Sudoeste 21 Sudoeste 0 -- -- 45
2018-08-28 22:00:00 22.2 13 Sudoeste 18 Sudoeste 0 -- -- 42
2018-08-28 21:00:00 23.6 13 Sudoeste 33 Oeste 0 -- -- 34
2018-08-28 20:00:00 26.4 25 Oeste 42 Oeste 0 -- -- 31
2018-08-28 19:00:00 28.4 24 Oeste 48 Sudoeste 0 -- -- 25
2018-08-28 18:00:00 29.8 27 Sudoeste 53 Sudoeste 0 -- -- 21
2018-08-28 17:00:00 29.8 31 Sudoeste 57 Sudoeste 0 -- -- 20
2018-08-28 16:00:00 29.8 32 Sudoeste 79 Sudoeste 0 -- -- 20
2018-08-28 15:00:00 29.4 34 Sudoeste 61 Sudoeste 0 -- -- 23
2018-08-28 14:00:00 28.9 38 Sudoeste 58 Sudoeste 0 -- -- 23
2018-08-28 13:00:00 28.9 29 Sudoeste 42 Sudoeste 0 -- -- 27
2018-08-28 12:00:00 28 21 Sudoeste 38 Sudoeste 0 -- -- 29
2018-08-28 11:00:00 25.9 22 Sudoeste 34 Sur 0 -- -- 34
2018-08-28 10:00:00 24.3 19 Sur 30 Sur 0 -- -- 42
2018-08-28 09:00:00 22.6 15 Sudeste 25 Sur 0 -- -- 48
2018-08-28 08:00:00 21.5 13 Sur 27 Sur 0 -- -- 46
2018-08-28 07:00:00 22 19 Sur 30 Sur 0 -- -- 44
2018-08-28 06:00:00 22.5 21 Sur 32 Sudeste 0 -- -- 40
2018-08-28 05:00:00 23.1 17 Sur 30 Sudeste 0 -- -- 32
2018-08-28 04:00:00 23.9 18 Sudeste 24 Sudeste 0 -- -- 29
2018-08-28 03:00:00 23.8 17 Sudeste 20 Sudeste 0 -- -- 29
2018-08-28 02:00:00 22.8 12 Sudeste 13 Sudeste 0 -- -- 30
2018-08-28 01:00:00 23.1 5 Sur 12 Sudoeste 0 -- -- 32
2018-08-28 00:00:00 23.8 9 Sur 14 Sur 0 -- -- 30
2018-08-27 23:00:00 23.9 10 Sur 13 Sur 0 -- -- 29
2018-08-27 22:00:00 25 5 Sudoeste 9 Oeste 0 -- -- 26
2018-08-27 21:00:00 26.6 5 Sudoeste 23 Oeste 0 -- -- 26
2018-08-27 20:00:00 28.3 16 Oeste 27 Oeste 0 -- -- 22
2018-08-27 19:00:00 29.6 15 Sudoeste 34 Sudoeste 0 -- -- 23
2018-08-27 18:00:00 31.6 17 Sudoeste 30 Oeste 0 -- -- 22
2018-08-27 17:00:00 32.2 17 Sudoeste 32 Oeste 0 -- -- 19
2018-08-27 16:00:00 31.6 9 Oeste 30 Sudoeste 0 -- -- 22
2018-08-27 15:00:00 30.8 9 Oeste 20 Sur 0 -- -- 23
2018-08-27 14:00:00 30 9 Noroeste 17 Oeste 0 -- -- 27
2018-08-27 13:00:00 28.8 9 Noroeste 17 Norte 0 -- -- 30
2018-08-27 12:00:00 27.9 5 Norte 14 Nordeste 0 -- -- 33
2018-08-27 11:00:00 26.7 7 Sur 11 Sur 0 -- -- 33
2018-08-27 10:00:00 25.2 3 Sudoeste 12 Sudeste 0 -- -- 35
2018-08-27 09:00:00 22.5 10 Sudeste 13 Sudeste 0 -- -- 42
2018-08-27 08:00:00 19.4 10 Sudeste 13 Sudeste 0 -- -- 47
2018-08-27 07:00:00 19.3 9 Sudeste 15 Sudeste 0 -- -- 47
2018-08-27 06:00:00 18.9 4 Sur 13 Sudeste 0 -- -- 48
2018-08-27 05:00:00 20.3 11 Sudeste 13 Sudeste 0 -- -- 45
2018-08-27 04:00:00 20.6 9 Sudeste 15 Sudeste 0 -- -- 44
2018-08-27 03:00:00 20.4 14 Sudeste 17 Sudeste 0 -- -- 44
2018-08-27 02:00:00 18.6 10 Sudeste 14 Este 0 -- -- 49
2018-08-27 01:00:00 18.1 9 Este 10 Este 0 -- -- 51
2018-08-27 00:00:00 19.6 4 Este 5 Este 0 -- -- 46
2018-08-26 23:00:00 21.6 2 Noroeste 5 Oeste 0 -- -- 41
2018-08-26 22:00:00 22.8 2 Oeste 9 Noroeste 0 -- -- 39
2018-08-26 21:00:00 24.2 6 Noroeste 13 Oeste 0 -- -- 36
2018-08-26 20:00:00 26.8 8 Oeste 23 Oeste 0 -- -- 34
2018-08-26 19:00:00 27.7 12 Oeste 23 Noroeste 0 -- -- 31
2018-08-26 18:00:00 28.2 12 Oeste 26 Oeste 0 -- -- 31
2018-08-26 17:00:00 27.5 11 Oeste 28 Oeste 0 -- -- 31
2018-08-26 16:00:00 27.2 12 Sudoeste 25 Oeste 0 -- -- 33
2018-08-26 15:00:00 26.3 12 Oeste 24 Noroeste 0 -- -- 34
2018-08-26 14:00:00 25.2 10 Noroeste 20 Oeste 0 -- -- 36
2018-08-26 13:00:00 24.6 8 Noroeste 13 Noroeste 0 -- -- 38
2018-08-26 12:00:00 22.7 5 Norte 12 Nordeste 0 -- -- 43
2018-08-26 11:00:00 21.5 6 Norte 10 Nordeste 0 -- -- 44
2018-08-26 10:00:00 19.9 3 Oeste 6 Noroeste 0 -- -- 45
2018-08-26 09:00:00 17.9 3 Sur 10 Sudeste 0 -- -- 55
2018-08-26 08:00:00 15.5 7 Sur 9 Sudeste 0 -- -- 56
2018-08-26 07:00:00 14.4 6 Sudeste 8 Sudeste 0 -- -- 59
2018-08-26 06:00:00 14.8 6 Sudeste 11 Sudeste 0 -- -- 59
2018-08-26 05:00:00 13.7 8 Sudeste 15 Este 0 -- -- 67
2018-08-26 04:00:00 12 11 Este 13 Este 0 -- -- 78
2018-08-26 03:00:00 14.1 9 Nordeste 14 Este 0 -- -- 68
2018-08-26 02:00:00 14 11 Este 13 Este 0 -- -- 67
2018-08-26 01:00:00 14 10 Este 14 Este 0 -- -- 68
2018-08-26 00:00:00 14 6 Este 9 Nordeste 0 -- -- 68
2018-08-25 23:00:00 14.7 7 Este 9 Este 0 -- -- 64
2018-08-25 22:00:00 16 7 Nordeste 17 Norte 0 -- -- 59
2018-08-25 21:00:00 18.5 10 Norte 22 Norte 0 -- -- 48
2018-08-25 20:00:00 20.8 13 Norte 22 Nordeste 0 -- -- 39
2018-08-25 19:00:00 22.6 12 Norte 24 Noroeste 0 -- -- 35
2018-08-25 18:00:00 23.7 11 Noroeste 21 Noroeste 0 -- -- 36
2018-08-25 17:00:00 24 12 Noroeste 23 Oeste 0 -- -- 35
2018-08-25 16:00:00 23.7 13 Noroeste 24 Noroeste 0 -- -- 38
2018-08-25 15:00:00 22.7 12 Noroeste 24 Noroeste 0 -- -- 42
2018-08-25 14:00:00 22.5 8 Norte 24 Norte 0 -- -- 46
2018-08-25 13:00:00 21.3 7 Norte 18 Norte 0 -- -- 51
2018-08-25 12:00:00 20.2 10 Norte 14 Nordeste 0 -- -- 56
2018-08-25 11:00:00 17.9 7 Nordeste 14 Nordeste 0 -- -- 63
2018-08-25 10:00:00 17.7 6 Norte 14 Nordeste 0 -- -- 65
2018-08-25 09:00:00 14.5 3 Sudeste 9 Nordeste 0 -- -- 72
2018-08-25 08:00:00 13.9 6 Nordeste 14 Norte 0 -- -- 69
2018-08-25 07:00:00 13.8 5 Este 12 Este 0 -- -- 67
2018-08-25 06:00:00 12.3 8 Este 13 Nordeste 0 -- -- 75
2018-08-25 05:00:00 13.7 8 Nordeste 12 Nordeste 0 -- -- 68
2018-08-25 04:00:00 14.2 8 Este 9 Norte 0 -- -- 65
2018-08-25 03:00:00 16.1 8 Sudeste 11 Sudeste 0 -- -- 56
2018-08-25 02:00:00 14.6 5 Nordeste 12 Nordeste 0 -- -- 67
2018-08-25 01:00:00 16.4 5 Nordeste 15 Este 0 -- -- 56
2018-08-25 00:00:00 17.2 9 Este 19 Este 0 -- -- 55